sensor_id;sensor_type;location;lat;lon;timestamp;temperature;humidity
38237;DHT22;50101;49.438;11.098;2022-12-13T00:01:48;17.40;54.50
38237;DHT22;50101;49.438;11.098;2022-12-13T00:04:17;17.30;54.50
38237;DHT22;50101;49.438;11.098;2022-12-13T00:06:44;17.30;54.50
38237;DHT22;50101;49.438;11.098;2022-12-13T00:09:16;17.30;54.40
38237;DHT22;50101;49.438;11.098;2022-12-13T00:11:43;17.30;54.40
38237;DHT22;50101;49.438;11.098;2022-12-13T00:14:11;17.30;54.30
38237;DHT22;50101;49.438;11.098;2022-12-13T00:16:39;17.30;54.30
38237;DHT22;50101;49.438;11.098;2022-12-13T00:19:06;17.30;54.30
38237;DHT22;50101;49.438;11.098;2022-12-13T00:21:33;17.30;54.30
38237;DHT22;50101;49.438;11.098;2022-12-13T00:24:00;17.30;54.20
38237;DHT22;50101;49.438;11.098;2022-12-13T00:26:29;17.30;54.20
38237;DHT22;50101;49.438;11.098;2022-12-13T00:28:59;17.30;54.20
38237;DHT22;50101;49.438;11.098;2022-12-13T00:31:25;17.30;54.20
38237;DHT22;50101;49.438;11.098;2022-12-13T00:34:12;17.30;54.20
38237;DHT22;50101;49.438;11.098;2022-12-13T00:36:39;17.30;54.20
38237;DHT22;50101;49.438;11.098;2022-12-13T00:39:05;17.30;54.20
38237;DHT22;50101;49.438;11.098;2022-12-13T00:41:35;17.30;54.10
38237;DHT22;50101;49.438;11.098;2022-12-13T00:44:02;17.30;54.10
38237;DHT22;50101;49.438;11.098;2022-12-13T00:46:30;17.30;54.20
38237;DHT22;50101;49.438;11.098;2022-12-13T00:49:00;17.30;53.60
38237;DHT22;50101;49.438;11.098;2022-12-13T00:51:29;17.30;54.70
38237;DHT22;50101;49.438;11.098;2022-12-13T00:53:57;17.20;54.00
38237;DHT22;50101;49.438;11.098;2022-12-13T00:56:25;17.30;54.10
38237;DHT22;50101;49.438;11.098;2022-12-13T00:58:53;17.20;53.90
38237;DHT22;50101;49.438;11.098;2022-12-13T01:01:23;17.30;53.50
38237;DHT22;50101;49.438;11.098;2022-12-13T01:03:52;17.20;54.00
38237;DHT22;50101;49.438;11.098;2022-12-13T01:06:22;17.30;54.10
38237;DHT22;50101;49.438;11.098;2022-12-13T01:08:49;17.20;53.90
38237;DHT22;50101;49.438;11.098;2022-12-13T01:11:16;17.20;53.90
38237;DHT22;50101;49.438;11.098;2022-12-13T01:13:43;17.20;53.90
38237;DHT22;50101;49.438;11.098;2022-12-13T01:16:11;17.20;53.90
38237;DHT22;50101;49.438;11.098;2022-12-13T01:18:39;17.20;54.00
38237;DHT22;50101;49.438;11.098;2022-12-13T01:21:14;17.20;53.90
38237;DHT22;50101;49.438;11.098;2022-12-13T01:23:41;17.20;53.90
38237;DHT22;50101;49.438;11.098;2022-12-13T01:26:11;17.20;54.00
38237;DHT22;50101;49.438;11.098;2022-12-13T01:28:39;17.20;53.90
38237;DHT22;50101;49.438;11.098;2022-12-13T01:31:12;17.20;53.90
38237;DHT22;50101;49.438;11.098;2022-12-13T01:33:40;17.20;53.90
38237;DHT22;50101;49.438;11.098;2022-12-13T01:36:10;17.20;53.80
38237;DHT22;50101;49.438;11.098;2022-12-13T01:38:37;17.20;53.90
38237;DHT22;50101;49.438;11.098;2022-12-13T01:41:04;17.20;53.80
38237;DHT22;50101;49.438;11.098;2022-12-13T01:46:13;17.20;53.80
38237;DHT22;50101;49.438;11.098;2022-12-13T01:48:48;17.20;53.80
38237;DHT22;50101;49.438;11.098;2022-12-13T01:51:18;17.20;53.90
38237;DHT22;50101;49.438;11.098;2022-12-13T01:53:47;17.20;53.70
38237;DHT22;50101;49.438;11.098;2022-12-13T01:56:19;17.20;53.80
38237;DHT22;50101;49.438;11.098;2022-12-13T01:58:49;17.20;53.80
38237;DHT22;50101;49.438;11.098;2022-12-13T02:01:17;17.20;53.80
38237;DHT22;50101;49.438;11.098;2022-12-13T02:03:45;17.20;53.70
38237;DHT22;50101;49.438;11.098;2022-12-13T02:06:27;17.10;54.20
38237;DHT22;50101;49.438;11.098;2022-12-13T02:08:55;17.10;53.60
38237;DHT22;50101;49.438;11.098;2022-12-13T02:11:23;17.10;53.60
38237;DHT22;50101;49.438;11.098;2022-12-13T02:13:50;17.10;53.70
38237;DHT22;50101;49.438;11.098;2022-12-13T02:22:50;17.20;53.70
38237;DHT22;50101;49.438;11.098;2022-12-13T02:25:28;17.20;53.60
38237;DHT22;50101;49.438;11.098;2022-12-13T02:33:37;17.00;53.40
38237;DHT22;50101;49.438;11.098;2022-12-13T02:36:25;17.10;53.60
38237;DHT22;50101;49.438;11.098;2022-12-13T02:39:13;17.10;53.50
38237;DHT22;50101;49.438;11.098;2022-12-13T02:42:05;17.20;53.50
38237;DHT22;50101;49.438;11.098;2022-12-13T02:45:08;17.10;53.40
38237;DHT22;50101;49.438;11.098;2022-12-13T02:47:46;17.10;53.40
38237;DHT22;50101;49.438;11.098;2022-12-13T02:50:14;17.10;53.50
38237;DHT22;50101;49.438;11.098;2022-12-13T02:52:42;17.10;53.50
38237;DHT22;50101;49.438;11.098;2022-12-13T02:55:13;17.10;53.40
38237;DHT22;50101;49.438;11.098;2022-12-13T02:57:43;17.10;53.40
38237;DHT22;50101;49.438;11.098;2022-12-13T03:00:19;17.10;53.30
38237;DHT22;50101;49.438;11.098;2022-12-13T03:14:56;17.10;53.20
38237;DHT22;50101;49.438;11.098;2022-12-13T03:17:25;17.10;53.10
38237;DHT22;50101;49.438;11.098;2022-12-13T03:19:52;17.10;53.20
38237;DHT22;50101;49.438;11.098;2022-12-13T03:22:19;17.10;53.20
38237;DHT22;50101;49.438;11.098;2022-12-13T03:24:46;17.10;53.10
38237;DHT22;50101;49.438;11.098;2022-12-13T03:27:13;17.10;53.10
38237;DHT22;50101;49.438;11.098;2022-12-13T03:29:39;17.10;53.10
38237;DHT22;50101;49.438;11.098;2022-12-13T03:32:06;17.10;53.00
38237;DHT22;50101;49.438;11.098;2022-12-13T03:34:33;17.10;52.90
38237;DHT22;50101;49.438;11.098;2022-12-13T03:37:11;17.10;53.00
38237;DHT22;50101;49.438;11.098;2022-12-13T03:39:37;17.10;53.00
38237;DHT22;50101;49.438;11.098;2022-12-13T03:42:04;17.10;53.00
38237;DHT22;50101;49.438;11.098;2022-12-13T03:44:31;17.10;52.90
38237;DHT22;50101;49.438;11.098;2022-12-13T03:46:57;17.10;53.00
38237;DHT22;50101;49.438;11.098;2022-12-13T03:49:26;17.10;52.90
38237;DHT22;50101;49.438;11.098;2022-12-13T03:52:00;17.10;53.00
38237;DHT22;50101;49.438;11.098;2022-12-13T03:54:27;17.10;52.90
38237;DHT22;50101;49.438;11.098;2022-12-13T03:56:54;17.10;52.90
38237;DHT22;50101;49.438;11.098;2022-12-13T03:59:20;17.00;52.90
38237;DHT22;50101;49.438;11.098;2022-12-13T04:01:47;17.10;52.90
38237;DHT22;50101;49.438;11.098;2022-12-13T04:04:14;17.10;53.00
38237;DHT22;50101;49.438;11.098;2022-12-13T04:06:40;17.10;52.90
38237;DHT22;50101;49.438;11.098;2022-12-13T04:09:07;17.10;52.90
38237;DHT22;50101;49.438;11.098;2022-12-13T04:11:33;17.00;52.90
38237;DHT22;50101;49.438;11.098;2022-12-13T04:14:19;17.00;52.90
38237;DHT22;50101;49.438;11.098;2022-12-13T04:16:49;17.00;52.90
38237;DHT22;50101;49.438;11.098;2022-12-13T04:19:16;17.00;52.90
38237;DHT22;50101;49.438;11.098;2022-12-13T04:21:53;17.00;52.90
38237;DHT22;50101;49.438;11.098;2022-12-13T04:24:21;17.00;52.90
38237;DHT22;50101;49.438;11.098;2022-12-13T04:26:59;17.80;53.60
38237;DHT22;50101;49.438;11.098;2022-12-13T04:29:26;17.00;52.40
38237;DHT22;50101;49.438;11.098;2022-12-13T04:32:00;17.00;52.90
38237;DHT22;50101;49.438;11.098;2022-12-13T04:34:27;17.00;52.90
38237;DHT22;50101;49.438;11.098;2022-12-13T04:37:02;17.00;52.90
38237;DHT22;50101;49.438;11.098;2022-12-13T04:39:28;17.00;52.30
38237;DHT22;50101;49.438;11.098;2022-12-13T04:42:00;17.00;52.80
38237;DHT22;50101;49.438;11.098;2022-12-13T04:44:27;17.00;52.90
38237;DHT22;50101;49.438;11.098;2022-12-13T04:46:59;17.00;52.80
38237;DHT22;50101;49.438;11.098;2022-12-13T04:49:28;17.00;52.20
38237;DHT22;50101;49.438;11.098;2022-12-13T04:51:55;17.00;52.80
38237;DHT22;50101;49.438;11.098;2022-12-13T04:54:28;17.00;52.70
38237;DHT22;50101;49.438;11.098;2022-12-13T04:57:06;17.00;52.70
38237;DHT22;50101;49.438;11.098;2022-12-13T04:59:33;17.00;52.70
38237;DHT22;50101;49.438;11.098;2022-12-13T05:02:00;17.00;52.60
38237;DHT22;50101;49.438;11.098;2022-12-13T05:04:27;17.00;52.60
38237;DHT22;50101;49.438;11.098;2022-12-13T05:06:58;17.00;52.80
38237;DHT22;50101;49.438;11.098;2022-12-13T05:09:25;17.00;52.60
38237;DHT22;50101;49.438;11.098;2022-12-13T05:11:52;17.00;52.60
38237;DHT22;50101;49.438;11.098;2022-12-13T05:14:29;17.00;52.70
38237;DHT22;50101;49.438;11.098;2022-12-13T05:16:55;17.00;52.60
38237;DHT22;50101;49.438;11.098;2022-12-13T05:19:22;17.00;52.40
38237;DHT22;50101;49.438;11.098;2022-12-13T05:21:57;17.00;52.90
38237;DHT22;50101;49.438;11.098;2022-12-13T05:24:27;17.00;52.90
38237;DHT22;50101;49.438;11.098;2022-12-13T05:26:54;17.00;52.90
38237;DHT22;50101;49.438;11.098;2022-12-13T05:29:20;17.00;53.00
38237;DHT22;50101;49.438;11.098;2022-12-13T05:31:47;17.00;53.00
38237;DHT22;50101;49.438;11.098;2022-12-13T05:34:14;17.00;53.20
38237;DHT22;50101;49.438;11.098;2022-12-13T05:36:40;17.00;53.30
38237;DHT22;50101;49.438;11.098;2022-12-13T05:39:07;17.10;53.30
38237;DHT22;50101;49.438;11.098;2022-12-13T05:41:54;17.00;53.20
38237;DHT22;50101;49.438;11.098;2022-12-13T05:44:27;17.00;53.30
38237;DHT22;50101;49.438;11.098;2022-12-13T05:46:54;17.10;53.30
38237;DHT22;50101;49.438;11.098;2022-12-13T05:49:21;17.10;53.30
38237;DHT22;50101;49.438;11.098;2022-12-13T05:51:47;17.10;53.30
38237;DHT22;50101;49.438;11.098;2022-12-13T05:54:14;17.10;53.20
38237;DHT22;50101;49.438;11.098;2022-12-13T05:56:41;17.10;53.10
38237;DHT22;50101;49.438;11.098;2022-12-13T05:59:07;17.10;52.90
38237;DHT22;50101;49.438;11.098;2022-12-13T06:01:34;17.10;52.90
38237;DHT22;50101;49.438;11.098;2022-12-13T06:04:01;17.10;52.90
38237;DHT22;50101;49.438;11.098;2022-12-13T06:06:27;17.10;52.90
38237;DHT22;50101;49.438;11.098;2022-12-13T06:08:54;17.10;52.90
38237;DHT22;50101;49.438;11.098;2022-12-13T06:11:21;17.10;52.90
38237;DHT22;50101;49.438;11.098;2022-12-13T06:13:58;17.10;52.90
38237;DHT22;50101;49.438;11.098;2022-12-13T06:16:26;17.10;52.80
38237;DHT22;50101;49.438;11.098;2022-12-13T06:18:54;17.10;53.40
38237;DHT22;50101;49.438;11.098;2022-12-13T06:21:31;17.10;52.80
38237;DHT22;50101;49.438;11.098;2022-12-13T06:24:12;17.10;52.90
38237;DHT22;50101;49.438;11.098;2022-12-13T06:26:38;17.10;52.80
38237;DHT22;50101;49.438;11.098;2022-12-13T06:29:05;17.10;52.70
38237;DHT22;50101;49.438;11.098;2022-12-13T06:31:32;17.20;52.80
38237;DHT22;50101;49.438;11.098;2022-12-13T06:34:02;17.20;52.80
38237;DHT22;50101;49.438;11.098;2022-12-13T06:36:41;17.20;52.80
38237;DHT22;50101;49.438;11.098;2022-12-13T06:39:07;17.20;52.70
38237;DHT22;50101;49.438;11.098;2022-12-13T06:41:34;17.20;52.70
38237;DHT22;50101;49.438;11.098;2022-12-13T06:44:02;17.20;52.60
38237;DHT22;50101;49.438;11.098;2022-12-13T06:46:28;17.20;52.60
38237;DHT22;50101;49.438;11.098;2022-12-13T06:48:55;17.20;52.60
38237;DHT22;50101;49.438;11.098;2022-12-13T06:51:22;17.20;52.60
38237;DHT22;50101;49.438;11.098;2022-12-13T06:53:59;17.20;52.60
38237;DHT22;50101;49.438;11.098;2022-12-13T06:56:26;17.30;52.60
38237;DHT22;50101;49.438;11.098;2022-12-13T06:58:53;17.30;52.60
38237;DHT22;50101;49.438;11.098;2022-12-13T07:01:28;17.30;52.00
38237;DHT22;50101;49.438;11.098;2022-12-13T07:04:04;17.30;52.50
38237;DHT22;50101;49.438;11.098;2022-12-13T07:06:51;17.30;53.00
38237;DHT22;50101;49.438;11.098;2022-12-13T07:09:18;17.30;52.40
38237;DHT22;50101;49.438;11.098;2022-12-13T07:11:44;17.30;52.40
38237;DHT22;50101;49.438;11.098;2022-12-13T07:14:18;17.30;52.40
38237;DHT22;50101;49.438;11.098;2022-12-13T07:16:44;17.30;52.50
38237;DHT22;50101;49.438;11.098;2022-12-13T07:19:11;17.30;52.40
38237;DHT22;50101;49.438;11.098;2022-12-13T07:21:49;17.30;52.40
38237;DHT22;50101;49.438;11.098;2022-12-13T07:24:16;17.40;52.50
38237;DHT22;50101;49.438;11.098;2022-12-13T07:26:43;17.40;52.40
38237;DHT22;50101;49.438;11.098;2022-12-13T07:29:09;17.40;52.50
38237;DHT22;50101;49.438;11.098;2022-12-13T07:31:36;17.40;52.50
38237;DHT22;50101;49.438;11.098;2022-12-13T07:34:03;17.40;52.50
38237;DHT22;50101;49.438;11.098;2022-12-13T07:36:30;17.40;52.50
38237;DHT22;50101;49.438;11.098;2022-12-13T07:38:56;17.40;52.40
38237;DHT22;50101;49.438;11.098;2022-12-13T07:41:25;17.40;53.00
38237;DHT22;50101;49.438;11.098;2022-12-13T07:43:53;17.40;52.40
38237;DHT22;50101;49.438;11.098;2022-12-13T07:46:21;17.40;52.40
38237;DHT22;50101;49.438;11.098;2022-12-13T07:49:01;17.40;51.90
38237;DHT22;50101;49.438;11.098;2022-12-13T07:51:28;17.40;52.40
38237;DHT22;50101;49.438;11.098;2022-12-13T07:53:54;17.50;52.40
38237;DHT22;50101;49.438;11.098;2022-12-13T07:56:21;17.50;52.40
38237;DHT22;50101;49.438;11.098;2022-12-13T07:58:48;17.50;52.40
38237;DHT22;50101;49.438;11.098;2022-12-13T08:01:14;17.50;51.90
38237;DHT22;50101;49.438;11.098;2022-12-13T08:03:41;17.50;52.40
38237;DHT22;50101;49.438;11.098;2022-12-13T08:06:10;17.50;52.30
38237;DHT22;50101;49.438;11.098;2022-12-13T08:08:39;17.50;52.40
38237;DHT22;50101;49.438;11.098;2022-12-13T08:11:08;17.50;52.40
38237;DHT22;50101;49.438;11.098;2022-12-13T08:13:35;17.50;52.40
38237;DHT22;50101;49.438;11.098;2022-12-13T08:16:05;17.50;52.40
38237;DHT22;50101;49.438;11.098;2022-12-13T08:18:52;17.50;52.30
38237;DHT22;50101;49.438;11.098;2022-12-13T08:21:32;16.70;51.70
38237;DHT22;50101;49.438;11.098;2022-12-13T08:24:19;17.60;52.40
38237;DHT22;50101;49.438;11.098;2022-12-13T08:26:46;17.60;52.40
38237;DHT22;50101;49.438;11.098;2022-12-13T08:29:12;17.60;52.30
38237;DHT22;50101;49.438;11.098;2022-12-13T08:32:04;17.60;52.30
38237;DHT22;50101;49.438;11.098;2022-12-13T08:34:31;17.60;52.30
38237;DHT22;50101;49.438;11.098;2022-12-13T08:36:58;17.60;52.30
38237;DHT22;50101;49.438;11.098;2022-12-13T08:39:32;17.60;52.30
38237;DHT22;50101;49.438;11.098;2022-12-13T08:42:05;17.60;52.30
38237;DHT22;50101;49.438;11.098;2022-12-13T08:44:43;17.60;52.30
38237;DHT22;50101;49.438;11.098;2022-12-13T08:47:10;17.70;52.40
38237;DHT22;50101;49.438;11.098;2022-12-13T08:49:37;17.70;52.40
38237;DHT22;50101;49.438;11.098;2022-12-13T08:52:03;17.70;52.40
38237;DHT22;50101;49.438;11.098;2022-12-13T08:54:32;17.70;52.40
38237;DHT22;50101;49.438;11.098;2022-12-13T08:56:59;17.70;52.40
38237;DHT22;50101;49.438;11.098;2022-12-13T08:59:25;17.70;51.90
38237;DHT22;50101;49.438;11.098;2022-12-13T09:01:52;17.70;52.40
38237;DHT22;50101;49.438;11.098;2022-12-13T09:04:22;17.70;52.40
38237;DHT22;50101;49.438;11.098;2022-12-13T09:06:57;17.70;52.30
38237;DHT22;50101;49.438;11.098;2022-12-13T09:09:28;17.70;52.30
38237;DHT22;50101;49.438;11.098;2022-12-13T09:11:55;17.70;52.30
38237;DHT22;50101;49.438;11.098;2022-12-13T09:14:26;17.80;52.30
38237;DHT22;50101;49.438;11.098;2022-12-13T09:17:00;17.80;52.30
38237;DHT22;50101;49.438;11.098;2022-12-13T09:19:30;17.80;52.30
38237;DHT22;50101;49.438;11.098;2022-12-13T09:22:03;17.80;52.30
38237;DHT22;50101;49.438;11.098;2022-12-13T09:24:30;17.80;52.30
38237;DHT22;50101;49.438;11.098;2022-12-13T09:27:06;17.80;52.30
38237;DHT22;50101;49.438;11.098;2022-12-13T09:29:36;17.90;51.90
38237;DHT22;50101;49.438;11.098;2022-12-13T09:32:04;17.80;52.30
38237;DHT22;50101;49.438;11.098;2022-12-13T09:34:31;17.90;52.30
38237;DHT22;50101;49.438;11.098;2022-12-13T09:36:58;17.80;52.30
38237;DHT22;50101;49.438;11.098;2022-12-13T09:39:27;17.80;52.40
38237;DHT22;50101;49.438;11.098;2022-12-13T09:41:57;17.90;52.50
38237;DHT22;50101;49.438;11.098;2022-12-13T09:44:29;17.80;52.30
38237;DHT22;50101;49.438;11.098;2022-12-13T09:47:16;17.80;52.30
38237;DHT22;50101;49.438;11.098;2022-12-13T09:49:49;17.90;52.30
38237;DHT22;50101;49.438;11.098;2022-12-13T09:52:20;17.90;52.30
38237;DHT22;50101;49.438;11.098;2022-12-13T09:54:53;17.90;52.30
38237;DHT22;50101;49.438;11.098;2022-12-13T09:57:28;17.90;52.30
38237;DHT22;50101;49.438;11.098;2022-12-13T10:00:07;17.90;52.30
38237;DHT22;50101;49.438;11.098;2022-12-13T10:02:47;17.90;52.30
38237;DHT22;50101;49.438;11.098;2022-12-13T10:05:18;17.90;52.30
38237;DHT22;50101;49.438;11.098;2022-12-13T10:07:51;17.90;52.30
38237;DHT22;50101;49.438;11.098;2022-12-13T10:10:19;18.00;52.30
38237;DHT22;50101;49.438;11.098;2022-12-13T10:12:49;18.00;52.30
38237;DHT22;50101;49.438;11.098;2022-12-13T10:15:19;18.00;52.30
38237;DHT22;50101;49.438;11.098;2022-12-13T10:17:48;17.90;52.30
38237;DHT22;50101;49.438;11.098;2022-12-13T10:20:21;17.90;52.30
38237;DHT22;50101;49.438;11.098;2022-12-13T10:22:51;18.00;52.40
38237;DHT22;50101;49.438;11.098;2022-12-13T10:25:53;18.00;52.30
38237;DHT22;50101;49.438;11.098;2022-12-13T10:28:31;18.00;52.30
38237;DHT22;50101;49.438;11.098;2022-12-13T10:30:59;18.00;52.30
38237;DHT22;50101;49.438;11.098;2022-12-13T10:33:30;18.00;52.20
38237;DHT22;50101;49.438;11.098;2022-12-13T10:36:28;18.00;52.20
38237;DHT22;50101;49.438;11.098;2022-12-13T10:38:55;18.00;52.30
38237;DHT22;50101;49.438;11.098;2022-12-13T10:41:27;18.00;52.30
38237;DHT22;50101;49.438;11.098;2022-12-13T10:44:19;18.00;52.20
38237;DHT22;50101;49.438;11.098;2022-12-13T10:55:03;18.00;52.20
38237;DHT22;50101;49.438;11.098;2022-12-13T10:57:53;18.00;52.30
38237;DHT22;50101;49.438;11.098;2022-12-13T11:00:36;18.00;52.30
38237;DHT22;50101;49.438;11.098;2022-12-13T11:03:05;18.00;52.30
38237;DHT22;50101;49.438;11.098;2022-12-13T11:05:34;18.00;52.20
38237;DHT22;50101;49.438;11.098;2022-12-13T11:08:33;18.00;52.30
38237;DHT22;50101;49.438;11.098;2022-12-13T11:11:05;18.10;52.30
38237;DHT22;50101;49.438;11.098;2022-12-13T11:13:39;18.10;52.20
38237;DHT22;50101;49.438;11.098;2022-12-13T11:16:29;18.10;52.10
38237;DHT22;50101;49.438;11.098;2022-12-13T11:19:04;18.10;52.20
38237;DHT22;50101;49.438;11.098;2022-12-13T11:21:35;18.00;52.20
38237;DHT22;50101;49.438;11.098;2022-12-13T11:24:05;18.00;52.20
38237;DHT22;50101;49.438;11.098;2022-12-13T11:26:35;18.10;52.30
38237;DHT22;50101;49.438;11.098;2022-12-13T11:32:08;18.10;51.80
38237;DHT22;50101;49.438;11.098;2022-12-13T11:40:20;18.10;52.10
38237;DHT22;50101;49.438;11.098;2022-12-13T11:43:01;18.10;52.20
38237;DHT22;50101;49.438;11.098;2022-12-13T11:45:36;18.10;52.20
38237;DHT22;50101;49.438;11.098;2022-12-13T11:48:20;18.10;52.20
38237;DHT22;50101;49.438;11.098;2022-12-13T11:50:50;18.10;51.60
38237;DHT22;50101;49.438;11.098;2022-12-13T11:58:26;18.10;52.20
38237;DHT22;50101;49.438;11.098;2022-12-13T12:01:21;18.10;52.20
38237;DHT22;50101;49.438;11.098;2022-12-13T12:04:05;18.10;52.20
38237;DHT22;50101;49.438;11.098;2022-12-13T12:06:58;18.10;52.30
38237;DHT22;50101;49.438;11.098;2022-12-13T12:09:54;18.10;51.70
38237;DHT22;50101;49.438;11.098;2022-12-13T12:12:25;18.10;52.20
38237;DHT22;50101;49.438;11.098;2022-12-13T12:15:11;18.10;52.20
38237;DHT22;50101;49.438;11.098;2022-12-13T12:17:42;18.10;52.20
38237;DHT22;50101;49.438;11.098;2022-12-13T12:20:12;18.10;52.20
38237;DHT22;50101;49.438;11.098;2022-12-13T12:23:06;18.10;52.20
38237;DHT22;50101;49.438;11.098;2022-12-13T12:34:57;18.10;52.30
38237;DHT22;50101;49.438;11.098;2022-12-13T12:37:52;18.10;52.20
38237;DHT22;50101;49.438;11.098;2022-12-13T12:40:41;18.10;52.30
38237;DHT22;50101;49.438;11.098;2022-12-13T12:43:35;18.10;52.30
38237;DHT22;50101;49.438;11.098;2022-12-13T12:51:50;18.10;52.30
38237;DHT22;50101;49.438;11.098;2022-12-13T12:57:25;18.10;52.30
38237;DHT22;50101;49.438;11.098;2022-12-13T13:02:56;18.00;52.30
38237;DHT22;50101;49.438;11.098;2022-12-13T13:05:57;18.00;52.30
38237;DHT22;50101;49.438;11.098;2022-12-13T13:08:43;18.00;52.30
38237;DHT22;50101;49.438;11.098;2022-12-13T13:11:17;18.00;52.40
38237;DHT22;50101;49.438;11.098;2022-12-13T13:16:46;18.00;52.20
38237;DHT22;50101;49.438;11.098;2022-12-13T13:21:53;18.00;52.30
38237;DHT22;50101;49.438;11.098;2022-12-13T13:24:29;18.00;52.40
38237;DHT22;50101;49.438;11.098;2022-12-13T13:29:38;18.00;52.40
38237;DHT22;50101;49.438;11.098;2022-12-13T13:34:47;18.00;52.40
38237;DHT22;50101;49.438;11.098;2022-12-13T13:37:27;18.00;52.50
38237;DHT22;50101;49.438;11.098;2022-12-13T13:39:59;18.00;52.10
38237;DHT22;50101;49.438;11.098;2022-12-13T13:42:28;18.00;52.60
38237;DHT22;50101;49.438;11.098;2022-12-13T13:45:18;18.00;52.60
38237;DHT22;50101;49.438;11.098;2022-12-13T13:48:26;18.00;52.60
38237;DHT22;50101;49.438;11.098;2022-12-13T14:11:19;18.00;52.80
38237;DHT22;50101;49.438;11.098;2022-12-13T14:19:31;18.00;52.80
38237;DHT22;50101;49.438;11.098;2022-12-13T14:25:05;18.00;52.80
38237;DHT22;50101;49.438;11.098;2022-12-13T14:27:43;18.00;52.80
38237;DHT22;50101;49.438;11.098;2022-12-13T14:30:17;18.00;52.80
38237;DHT22;50101;49.438;11.098;2022-12-13T14:32:54;17.90;52.70
38237;DHT22;50101;49.438;11.098;2022-12-13T14:35:25;17.90;52.70
38237;DHT22;50101;49.438;11.098;2022-12-13T14:38:01;18.00;52.80
38237;DHT22;50101;49.438;11.098;2022-12-13T14:40:48;18.00;52.80
38237;DHT22;50101;49.438;11.098;2022-12-13T14:43:25;18.00;52.80
38237;DHT22;50101;49.438;11.098;2022-12-13T14:45:58;17.90;52.70
38237;DHT22;50101;49.438;11.098;2022-12-13T14:48:26;17.90;52.70
38237;DHT22;50101;49.438;11.098;2022-12-13T14:50:55;17.90;52.70
38237;DHT22;50101;49.438;11.098;2022-12-13T14:53:28;17.90;52.70
38237;DHT22;50101;49.438;11.098;2022-12-13T14:56:12;17.90;52.70
38237;DHT22;50101;49.438;11.098;2022-12-13T14:58:58;17.90;52.70
38237;DHT22;50101;49.438;11.098;2022-12-13T15:06:48;17.90;52.70
38237;DHT22;50101;49.438;11.098;2022-12-13T15:09:19;17.90;52.70
38237;DHT22;50101;49.438;11.098;2022-12-13T15:11:46;17.90;52.70
38237;DHT22;50101;49.438;11.098;2022-12-13T15:14:18;17.90;52.70
38237;DHT22;50101;49.438;11.098;2022-12-13T15:16:52;17.90;52.70
38237;DHT22;50101;49.438;11.098;2022-12-13T15:19:25;17.90;52.70
38237;DHT22;50101;49.438;11.098;2022-12-13T15:21:59;17.90;52.20
38237;DHT22;50101;49.438;11.098;2022-12-13T15:24:33;17.90;52.70
38237;DHT22;50101;49.438;11.098;2022-12-13T15:27:01;17.90;52.60
38237;DHT22;50101;49.438;11.098;2022-12-13T15:29:30;17.90;52.60
38237;DHT22;50101;49.438;11.098;2022-12-13T15:31:59;17.80;52.60
38237;DHT22;50101;49.438;11.098;2022-12-13T15:36:56;17.90;52.60
38237;DHT22;50101;49.438;11.098;2022-12-13T15:39:24;17.90;52.10
38237;DHT22;50101;49.438;11.098;2022-12-13T15:41:53;17.90;52.60
38237;DHT22;50101;49.438;11.098;2022-12-13T15:44:32;17.90;52.60
38237;DHT22;50101;49.438;11.098;2022-12-13T15:47:05;17.90;52.70
38237;DHT22;50101;49.438;11.098;2022-12-13T15:49:39;17.90;52.60
38237;DHT22;50101;49.438;11.098;2022-12-13T15:57:23;17.90;52.60
38237;DHT22;50101;49.438;11.098;2022-12-13T16:00:22;17.90;52.60
38237;DHT22;50101;49.438;11.098;2022-12-13T16:03:12;17.80;52.50
38237;DHT22;50101;49.438;11.098;2022-12-13T16:05:50;17.80;52.60
38237;DHT22;50101;49.438;11.098;2022-12-13T16:10:56;17.90;52.70
38237;DHT22;50101;49.438;11.098;2022-12-13T16:13:26;17.90;52.70
38237;DHT22;50101;49.438;11.098;2022-12-13T16:16:00;17.90;52.70
38237;DHT22;50101;49.438;11.098;2022-12-13T16:18:44;17.90;52.70
38237;DHT22;50101;49.438;11.098;2022-12-13T16:21:11;17.90;52.60
38237;DHT22;50101;49.438;11.098;2022-12-13T16:23:38;17.90;52.60
38237;DHT22;50101;49.438;11.098;2022-12-13T16:26:04;17.90;52.60
38237;DHT22;50101;49.438;11.098;2022-12-13T16:28:35;17.80;52.60
38237;DHT22;50101;49.438;11.098;2022-12-13T16:33:41;17.90;52.70
38237;DHT22;50101;49.438;11.098;2022-12-13T16:36:09;17.80;52.60
38237;DHT22;50101;49.438;11.098;2022-12-13T16:38:36;17.80;52.60
38237;DHT22;50101;49.438;11.098;2022-12-13T16:41:03;17.90;52.70
38237;DHT22;50101;49.438;11.098;2022-12-13T16:43:37;17.90;52.70
38237;DHT22;50101;49.438;11.098;2022-12-13T16:46:05;17.90;52.80
38237;DHT22;50101;49.438;11.098;2022-12-13T16:48:53;17.90;52.70
38237;DHT22;50101;49.438;11.098;2022-12-13T16:51:20;17.90;52.80
38237;DHT22;50101;49.438;11.098;2022-12-13T16:53:47;17.80;52.50
38237;DHT22;50101;49.438;11.098;2022-12-13T16:56:14;17.80;52.60
38237;DHT22;50101;49.438;11.098;2022-12-13T16:58:47;17.80;52.60
38237;DHT22;50101;49.438;11.098;2022-12-13T17:01:19;17.80;52.70
38237;DHT22;50101;49.438;11.098;2022-12-13T17:03:46;20.00;54.60
38237;DHT22;50101;49.438;11.098;2022-12-13T17:06:14;17.90;52.90
38237;DHT22;50101;49.438;11.098;2022-12-13T17:08:43;17.90;52.90
38237;DHT22;50101;49.438;11.098;2022-12-13T17:11:10;17.90;53.00
38237;DHT22;50101;49.438;11.098;2022-12-13T17:13:43;17.90;53.10
38237;DHT22;50101;49.438;11.098;2022-12-13T17:16:12;17.90;53.00
38237;DHT22;50101;49.438;11.098;2022-12-13T17:18:39;17.80;52.90
38237;DHT22;50101;49.438;11.098;2022-12-13T17:21:07;17.80;52.50
38237;DHT22;50101;49.438;11.098;2022-12-13T17:23:33;17.80;52.90
38237;DHT22;50101;49.438;11.098;2022-12-13T17:26:05;17.90;53.00
38237;DHT22;50101;49.438;11.098;2022-12-13T17:28:32;17.80;52.70
38237;DHT22;50101;49.438;11.098;2022-12-13T17:31:10;17.80;52.70
38237;DHT22;50101;49.438;11.098;2022-12-13T17:33:40;17.80;52.80
38237;DHT22;50101;49.438;11.098;2022-12-13T17:36:08;17.80;52.80
38237;DHT22;50101;49.438;11.098;2022-12-13T17:38:36;17.90;52.80
38237;DHT22;50101;49.438;11.098;2022-12-13T17:41:03;17.80;52.00
38237;DHT22;50101;49.438;11.098;2022-12-13T17:43:29;17.80;52.60
38237;DHT22;50101;49.438;11.098;2022-12-13T17:46:02;17.70;52.60
38237;DHT22;50101;49.438;11.098;2022-12-13T17:48:30;17.70;53.00
38237;DHT22;50101;49.438;11.098;2022-12-13T17:51:07;17.70;52.30
38237;DHT22;50101;49.438;11.098;2022-12-13T17:53:34;17.70;52.40